createdAt,value
2022-10-20T00:02:54.087Z,101234.63
2022-10-20T00:06:07.117Z,101244.59
2022-10-20T00:09:09.372Z,101242.22
2022-10-20T00:12:11.613Z,101250.63
2022-10-20T00:15:13.809Z,101249.06
2022-10-20T00:18:15.947Z,101250.53
2022-10-20T00:21:21.045Z,101255.13
2022-10-20T00:24:23.268Z,101259.28
2022-10-20T00:27:25.412Z,101259.94
2022-10-20T00:30:27.622Z,101269.13
2022-10-20T00:33:29.960Z,101261.75
2022-10-20T00:36:32.132Z,101267.13
2022-10-20T00:39:34.292Z,101264.75
2022-10-20T00:42:36.722Z,101270.50
2022-10-20T00:45:41.487Z,101256.16
2022-10-20T00:48:47.967Z,101268.03
2022-10-20T00:51:52.684Z,101265.69
2022-10-20T00:54:54.856Z,101267.91
2022-10-20T00:57:59.229Z,101273.97
2022-10-20T01:01:01.647Z,101273.03
2022-10-20T01:04:04.029Z,101282.25
2022-10-20T01:07:06.548Z,101276.75
2022-10-20T01:10:11.198Z,101272.81
2022-10-20T01:13:38.335Z,101276.97
2022-10-20T01:17:24.971Z,101274.19
2022-10-20T01:20:29.828Z,101267.88
2022-10-20T01:24:09.477Z,101273.59
2022-10-20T01:27:25.818Z,101264.31
2022-10-20T01:30:28.957Z,101272.59
2022-10-20T01:33:49.366Z,101263.28
2022-10-20T01:36:59.256Z,101275.03
2022-10-20T01:40:10.610Z,101278.88
2022-10-20T01:43:15.101Z,101279.53
2022-10-20T01:46:21.596Z,101274.16
2022-10-20T01:49:25.526Z,101274.16
2022-10-20T01:52:29.144Z,101276.19
2022-10-20T01:55:34.031Z,101276.63
2022-10-20T01:59:05.658Z,101275.19
2022-10-20T02:02:13.607Z,101275.28
2022-10-20T02:05:24.010Z,101277.66
2022-10-20T02:08:47.612Z,101273.50
2022-10-20T02:12:02.344Z,101270.13
2022-10-20T02:15:06.814Z,101275.94
2022-10-20T02:18:11.330Z,101273.72
2022-10-20T02:21:13.649Z,101279.56
2022-10-20T02:24:17.675Z,101284.25
2022-10-20T02:27:27.065Z,101292.75
2022-10-20T02:30:30.705Z,101290.19
2022-10-20T02:33:34.906Z,101292.19
2022-10-20T02:36:40.490Z,101290.78
2022-10-20T02:39:42.634Z,101295.47
2022-10-20T02:42:44.837Z,101302.41
2022-10-20T02:45:46.997Z,101305.53
2022-10-20T02:48:49.162Z,101303.31
2022-10-20T02:51:51.529Z,101303.31
2022-10-20T02:54:53.859Z,101316.41
2022-10-20T02:57:56.511Z,101313.28
2022-10-20T03:00:58.655Z,101310.59
2022-10-20T03:04:00.857Z,101303.31
2022-10-20T03:07:03.196Z,101313.28
2022-10-20T03:10:06.160Z,101315.97
2022-10-20T03:13:09.957Z,101322.81
2022-10-20T03:16:12.216Z,101321.22
2022-10-20T03:19:14.469Z,101324.69
2022-10-20T03:22:16.665Z,101331.22
2022-10-20T03:25:19.109Z,101325.38
2022-10-20T03:28:21.284Z,101332.66
2022-10-20T03:31:23.434Z,101337.53
2022-10-20T03:34:25.792Z,101330.63
2022-10-20T03:37:27.978Z,101332.06
2022-10-20T03:40:30.147Z,101339.34
2022-10-20T03:43:32.446Z,101340.44
2022-10-20T03:46:34.624Z,101336.53
2022-10-20T03:49:36.784Z,101339.56
2022-10-20T03:52:39.121Z,101336.44
2022-10-20T03:55:41.490Z,101346.38
2022-10-20T03:58:43.682Z,101345.94
2022-10-20T04:01:46.644Z,101340.13
2022-10-20T04:04:48.824Z,101343.91
2022-10-20T04:07:51.113Z,101337.66
2022-10-20T04:10:53.329Z,101342.22
2022-10-20T04:13:55.527Z,101340.19
2022-10-20T04:16:57.681Z,101341.66
2022-10-20T04:19:59.859Z,101346.56
2022-10-20T04:23:02.020Z,101330.34
2022-10-20T04:26:12.351Z,101343.34
2022-10-20T04:29:14.517Z,101343.22
2022-10-20T04:32:16.763Z,101343.88
2022-10-20T04:35:18.900Z,101334.56
2022-10-20T04:38:21.047Z,101338.72
2022-10-20T04:41:23.208Z,101335.56
2022-10-20T04:44:25.580Z,101344.28
2022-10-20T04:47:32.237Z,101335.78
2022-10-20T04:50:34.366Z,101337.22
2022-10-20T04:53:42.570Z,101337.91
2022-10-20T04:56:44.779Z,101338.56
2022-10-20T04:59:46.923Z,101340.00
2022-10-20T05:02:49.085Z,101344.94
2022-10-20T05:05:51.225Z,101347.94
2022-10-20T05:08:56.067Z,101355.88
2022-10-20T05:11:58.867Z,101356.19
2022-10-20T05:15:01.021Z,101362.22
2022-10-20T05:18:03.557Z,101362.50
2022-10-20T05:21:11.689Z,101366.63
2022-10-20T05:24:19.810Z,101372.00
2022-10-20T05:27:23.705Z,101371.56
2022-10-20T05:30:25.900Z,101383.41
2022-10-20T05:33:28.062Z,101385.97
2022-10-20T05:36:30.382Z,101394.81
2022-10-20T05:39:32.560Z,101385.63
2022-10-20T05:42:35.080Z,101399.84
2022-10-20T05:45:37.501Z,101402.66
2022-10-20T05:48:43.108Z,101401.06
2022-10-20T05:51:46.945Z,101404.56
2022-10-20T05:54:49.105Z,101414.59
2022-10-20T05:57:51.795Z,101412.59
2022-10-20T06:00:53.956Z,101418.31
2022-10-20T06:04:00.262Z,101430.56
2022-10-20T06:07:02.924Z,101427.00
2022-10-20T06:10:05.529Z,101432.97
2022-10-20T06:13:07.748Z,101434.31
2022-10-20T06:16:14.918Z,101436.50
2022-10-20T06:19:17.220Z,101444.34
2022-10-20T06:22:19.393Z,101443.34
2022-10-20T06:25:21.604Z,101455.78
2022-10-20T06:28:23.838Z,101457.13
2022-10-20T06:31:28.730Z,101464.31
2022-10-20T06:34:30.910Z,101468.38
2022-10-20T06:37:33.490Z,101473.50
2022-10-20T06:40:35.698Z,101473.28
2022-10-20T06:43:38.309Z,101474.66
2022-10-20T06:46:41.182Z,101476.44
2022-10-20T06:49:45.797Z,101472.41
2022-10-20T06:52:48.005Z,101473.00
2022-10-20T06:57:57.648Z,101476.91
2022-10-20T07:01:11.102Z,101485.28
2022-10-20T07:04:15.244Z,101493.03
2022-10-20T07:07:17.487Z,101492.56
2022-10-20T07:12:35.872Z,101485.47
2022-10-20T07:15:38.534Z,101494.22
2022-10-20T07:18:41.172Z,101505.84
2022-10-20T07:21:45.506Z,101501.84
2022-10-20T07:24:47.967Z,101510.44
2022-10-20T07:27:50.201Z,101500.91
2022-10-20T07:30:52.607Z,101494.47
2022-10-20T07:36:14.108Z,101490.75
2022-10-20T07:39:16.795Z,101493.66
2022-10-20T07:43:10.227Z,101494.53
2022-10-20T07:46:13.910Z,101492.28
2022-10-20T07:52:39.065Z,101492.72
2022-10-20T07:55:41.427Z,101499.19
2022-10-20T07:58:44.244Z,101501.72
2022-10-20T08:01:46.794Z,101494.94
2022-10-20T08:04:49.630Z,101493.06
2022-10-20T08:07:52.079Z,101493.59
2022-10-20T08:10:54.470Z,101496.53
2022-10-20T08:13:56.672Z,101493.84
2022-10-20T08:16:59.637Z,101497.75
2022-10-20T08:23:18.123Z,101504.38
2022-10-20T08:26:25.197Z,101495.53
2022-10-20T08:29:27.438Z,101500.56
2022-10-20T08:32:29.638Z,101506.38
2022-10-20T08:35:31.869Z,101511.91
2022-10-20T08:38:34.723Z,101506.59
2022-10-20T08:42:07.009Z,101501.34
2022-10-20T08:45:05.184Z,101509.88
2022-10-20T08:48:14.688Z,101505.72
2022-10-20T08:51:27.010Z,101510.75
2022-10-20T08:54:34.319Z,101513.88
2022-10-20T08:57:36.921Z,101516.25
2022-10-20T09:00:40.012Z,101517.47
2022-10-20T09:03:42.540Z,101521.06
2022-10-20T09:06:46.975Z,101518.81
2022-10-20T09:09:50.257Z,101519.59
2022-10-20T09:12:53.366Z,101520.03
2022-10-20T09:16:06.320Z,101516.22
2022-10-20T09:19:20.435Z,101513.53
2022-10-20T09:22:26.181Z,101520.72
2022-10-20T09:25:28.422Z,101520.72
2022-10-20T09:28:42.905Z,101516.75
2022-10-20T09:31:55.142Z,101521.31
2022-10-20T09:35:15.380Z,101513.28
2022-10-20T09:38:22.685Z,101525.66
2022-10-20T09:41:30.038Z,101531.06
2022-10-20T09:44:58.135Z,101527.13
2022-10-20T09:48:22.788Z,101515.78
2022-10-20T09:51:27.579Z,101516.16
2022-10-20T09:54:30.576Z,101514.69
2022-10-20T09:57:32.934Z,101519.28
2022-10-20T10:00:46.890Z,101503.66
2022-10-20T10:03:56.497Z,101506.59
2022-10-20T10:06:58.708Z,101500.84
2022-10-20T10:10:08.616Z,101497.72
2022-10-20T10:13:32.139Z,101502.00
2022-10-20T10:16:42.974Z,101499.31
2022-10-20T10:19:51.411Z,101490.44
2022-10-20T10:23:30.614Z,101494.25
2022-10-20T10:26:43.824Z,101483.88
2022-10-20T10:29:46.345Z,101485.41
2022-10-20T10:32:48.570Z,101481.97
2022-10-20T10:35:50.934Z,101479.75
2022-10-20T10:38:54.003Z,101472.91
2022-10-20T10:42:43.480Z,101471.13
2022-10-20T10:45:52.419Z,101476.44
2022-10-20T10:49:03.187Z,101470.28
2022-10-20T10:52:21.481Z,101462.09
2022-10-20T10:55:49.006Z,101453.56
2022-10-20T10:58:54.462Z,101454.25
2022-10-20T11:02:08.518Z,101444.06
2022-10-20T11:05:11.110Z,101450.91
2022-10-20T11:08:48.589Z,101438.66
2022-10-20T11:12:12.549Z,101434.72
2022-10-20T11:15:24.744Z,101421.84
2022-10-20T11:18:29.544Z,101422.41
2022-10-20T11:22:10.611Z,101412.41
2022-10-20T11:25:33.134Z,101415.03
2022-10-20T11:28:44.434Z,101413.56
2022-10-20T11:31:56.079Z,101410.94
2022-10-20T11:35:36.830Z,101399.41
2022-10-20T11:38:49.704Z,101381.72
2022-10-20T11:41:58.100Z,101392.91
2022-10-20T11:45:05.119Z,101389.78
2022-10-20T11:48:16.408Z,101388.63
2022-10-20T11:51:30.575Z,101383.16
2022-10-20T11:54:55.659Z,101371.94
2022-10-20T11:58:25.296Z,101376.44
2022-10-20T12:01:56.105Z,101380.25
2022-10-20T12:05:30.052Z,101374.97
2022-10-20T12:09:08.138Z,101370.94
2022-10-20T12:12:45.255Z,101364.69
2022-10-20T12:15:50.160Z,101358.28
2022-10-20T12:19:07.220Z,101354.78
2022-10-20T12:22:15.424Z,101359.19
2022-10-20T12:25:34.709Z,101349.75
2022-10-20T12:28:41.295Z,101362.44
2022-10-20T12:32:21.301Z,101355.13
2022-10-20T12:35:23.433Z,101348.75
2022-10-20T12:38:27.077Z,101336.19
2022-10-20T12:41:34.098Z,101339.91
2022-10-20T12:44:43.236Z,101328.00
2022-10-20T12:47:59.049Z,101332.72
2022-10-20T12:51:08.628Z,101317.16
2022-10-20T12:54:22.483Z,101324.00
2022-10-20T12:57:36.968Z,101318.03
2022-10-20T13:00:59.598Z,101320.72
2022-10-20T13:04:01.834Z,101310.88
2022-10-20T13:07:03.995Z,101314.09
2022-10-20T13:10:27.409Z,101306.50
2022-10-20T13:13:41.003Z,101304.03
2022-10-20T13:17:11.961Z,101303.47
2022-10-20T13:20:40.808Z,101305.91
2022-10-20T13:23:54.192Z,101303.00
2022-10-20T13:27:01.514Z,101306.94
2022-10-20T13:30:08.215Z,101309.28
2022-10-20T13:33:38.978Z,101307.03
2022-10-20T13:37:02.332Z,101300.53
2022-10-20T13:40:58.101Z,101297.84
2022-10-20T13:44:14.929Z,101295.91
2022-10-20T13:47:33.731Z,101292.78
2022-10-20T13:50:39.977Z,101287.06
2022-10-20T13:53:45.701Z,101296.38
2022-10-20T13:56:49.532Z,101300.97
2022-10-20T14:00:19.886Z,101291.31
2022-10-20T14:03:22.077Z,101287.41
2022-10-20T14:06:26.953Z,101295.03
2022-10-20T14:09:29.124Z,101287.63
2022-10-20T14:12:32.319Z,101283.69
2022-10-20T14:15:37.755Z,101282.94
2022-10-20T14:18:40.188Z,101274.75
2022-10-20T14:21:45.156Z,101273.50
2022-10-20T14:24:49.236Z,101276.22
2022-10-20T14:27:53.544Z,101276.09
2022-10-20T14:30:56.084Z,101276.88
2022-10-20T14:33:58.309Z,101278.22
2022-10-20T14:37:01.244Z,101274.97
2022-10-20T14:40:07.304Z,101264.44
2022-10-20T14:43:14.823Z,101267.81
2022-10-20T14:46:37.975Z,101265.47
2022-10-20T14:49:42.225Z,101266.16
2022-10-20T14:52:44.521Z,101266.50
2022-10-20T14:55:46.748Z,101267.97
2022-10-20T14:58:58.782Z,101271.00
2022-10-20T15:02:08.846Z,101260.91
2022-10-20T15:05:44.995Z,101257.44
2022-10-20T15:08:55.218Z,101263.16
2022-10-20T15:11:57.670Z,101253.53
2022-10-20T15:15:07.636Z,101251.50
2022-10-20T15:18:15.028Z,101249.16
2022-10-20T15:21:17.185Z,101250.28
2022-10-20T15:24:19.343Z,101246.03
2022-10-20T15:27:21.539Z,101240.97
2022-10-20T15:30:26.056Z,101243.22
2022-10-20T15:33:28.602Z,101244.03
2022-10-20T15:36:33.685Z,101242.00
2022-10-20T15:39:36.172Z,101230.81
2022-10-20T15:42:38.713Z,101230.38
2022-10-20T15:45:45.165Z,101237.66
2022-10-20T15:48:47.351Z,101239.56
2022-10-20T15:51:53.011Z,101234.88
2022-10-20T15:54:55.143Z,101227.56
2022-10-20T15:57:57.285Z,101231.75
2022-10-20T16:01:01.884Z,101235.19
2022-10-20T16:04:26.994Z,101227.13
2022-10-20T16:07:29.161Z,101232.94
2022-10-20T16:10:31.370Z,101241.47
2022-10-20T16:13:34.052Z,101248.84
2022-10-20T16:16:36.252Z,101247.38
2022-10-20T16:19:38.425Z,101247.50
2022-10-20T16:22:40.952Z,101251.84
2022-10-20T16:25:43.118Z,101245.03
2022-10-20T16:28:45.320Z,101248.59
2022-10-20T16:31:48.455Z,101249.50
2022-10-20T16:34:50.896Z,101251.16
2022-10-20T16:37:53.298Z,101249.34
2022-10-20T16:41:06.022Z,101247.63
2022-10-20T16:44:08.242Z,101255.47
2022-10-20T16:47:11.405Z,101255.56
2022-10-20T16:50:13.576Z,101259.94
2022-10-20T16:53:15.853Z,101248.50
2022-10-20T16:56:20.799Z,101254.34
2022-10-20T16:59:23.441Z,101249.72
2022-10-20T17:02:25.586Z,101250.16
2022-10-20T17:05:27.741Z,101241.31
2022-10-20T17:08:31.979Z,101243.13
2022-10-20T17:11:34.296Z,101252.84
2022-10-20T17:14:36.474Z,101252.09
2022-10-20T17:17:39.046Z,101257.03
2022-10-20T17:20:41.505Z,101248.97
2022-10-20T17:23:44.947Z,101251.19
2022-10-20T17:26:47.142Z,101255.81
2022-10-20T17:29:49.378Z,101255.34
2022-10-20T17:32:51.554Z,101264.53
2022-10-20T17:35:55.311Z,101257.91
2022-10-20T17:39:00.288Z,101255.22
2022-10-20T17:42:02.474Z,101253.34
2022-10-20T17:45:05.218Z,101259.81
2022-10-20T17:48:10.093Z,101265.56
2022-10-20T17:51:19.421Z,101264.78
2022-10-20T17:54:22.724Z,101273.19
2022-10-20T17:57:25.011Z,101270.50
2022-10-20T18:00:44.210Z,101263.91
2022-10-20T18:03:57.825Z,101263.09
2022-10-20T18:06:59.996Z,101264.22
2022-10-20T18:10:02.158Z,101261.09
2022-10-20T18:13:04.324Z,101255.28
2022-10-20T18:16:08.948Z,101256.75
2022-10-20T18:19:16.486Z,101264.03
2022-10-20T18:22:18.741Z,101266.28
2022-10-20T18:25:20.920Z,101259.31
2022-10-20T18:28:24.245Z,101256.19
2022-10-20T18:31:30.408Z,101260.00
2022-10-20T18:34:32.582Z,101270.31
2022-10-20T18:37:34.847Z,101263.38
2022-10-20T18:40:37.292Z,101266.75
2022-10-20T18:43:40.073Z,101268.31
2022-10-20T18:46:42.478Z,101261.72
2022-10-20T18:49:44.645Z,101257.78
2022-10-20T18:52:48.131Z,101262.81
2022-10-20T18:56:06.523Z,101254.31
2022-10-20T18:59:12.119Z,101251.50
2022-10-20T19:02:14.339Z,101254.66
2022-10-20T19:05:16.564Z,101261.16
2022-10-20T19:08:18.717Z,101263.06
2022-10-20T19:11:23.305Z,101263.41
2022-10-20T19:14:26.216Z,101267.22
2022-10-20T19:17:28.370Z,101262.19
2022-10-20T19:20:31.227Z,101260.94
2022-10-20T19:23:39.788Z,101262.84
2022-10-20T19:26:52.699Z,101258.94
2022-10-20T19:30:04.806Z,101270.03
2022-10-20T19:33:06.981Z,101272.59
2022-10-20T19:36:09.264Z,101260.31
2022-10-20T19:39:11.813Z,101265.22
2022-10-20T19:42:14.009Z,101273.63
2022-10-20T19:45:16.193Z,101278.56
2022-10-20T19:48:19.933Z,101267.00
2022-10-20T19:51:22.093Z,101273.53
2022-10-20T19:54:24.411Z,101276.97
2022-10-20T19:57:26.641Z,101267.81
2022-10-20T20:00:28.996Z,101267.44
2022-10-20T20:03:31.975Z,101258.28
2022-10-20T20:06:35.042Z,101264.09
2022-10-20T20:09:37.203Z,101271.81
2022-10-20T20:20:53.935Z,101272.94
2022-10-20T20:29:20.708Z,101271.34
2022-10-20T20:32:22.865Z,101268.41
2022-10-20T20:35:25.079Z,101269.31
2022-10-20T20:38:27.935Z,101277.13
2022-10-20T20:41:31.178Z,101271.06
2022-10-20T20:44:33.384Z,101268.13
2022-10-20T20:47:35.850Z,101268.56
2022-10-20T20:50:38.318Z,101271.25
2022-10-20T20:53:41.637Z,101267.91
2022-10-20T20:56:44.011Z,101274.84
2022-10-20T20:59:46.189Z,101268.34
2022-10-20T21:02:48.398Z,101270.69
2022-10-20T21:05:50.593Z,101271.03
2022-10-20T21:08:53.664Z,101269.13
2022-10-20T21:11:55.891Z,101279.09
2022-10-20T21:14:58.040Z,101277.53
2022-10-20T21:18:00.253Z,101270.16
2022-10-20T21:21:14.942Z,101269.34
2022-10-20T21:24:18.238Z,101268.56
2022-10-20T21:27:20.442Z,101270.03
2022-10-20T21:30:22.646Z,101275.78
2022-10-20T21:33:25.272Z,101261.09
2022-10-20T21:36:29.294Z,101263.00
2022-10-20T21:42:38.823Z,101268.28
2022-10-20T21:45:41.125Z,101270.50
2022-10-20T21:48:44.985Z,101268.53
2022-10-20T21:51:50.684Z,101264.25
2022-10-20T21:54:52.842Z,101269.97
2022-10-20T21:57:55.003Z,101261.00
2022-10-20T22:00:57.384Z,101261.78
2022-10-20T22:03:59.667Z,101260.25
2022-10-20T22:07:01.871Z,101262.94
2022-10-20T22:10:07.502Z,101263.25
2022-10-20T22:13:09.706Z,101261.72
2022-10-20T22:16:15.604Z,101263.16
2022-10-20T22:19:22.786Z,101258.91
2022-10-20T22:22:24.953Z,101264.28
2022-10-20T22:25:27.131Z,101266.53
2022-10-20T22:28:29.427Z,101267.22
2022-10-20T22:31:34.411Z,101268.66
2022-10-20T22:34:36.665Z,101281.00
2022-10-20T22:37:39.172Z,101276.72
2022-10-20T22:40:41.456Z,101272.81
2022-10-20T22:43:43.887Z,101271.25
2022-10-20T22:46:48.832Z,101270.81
2022-10-20T22:49:51.005Z,101267.66
2022-10-20T22:52:53.208Z,101272.28
2022-10-20T22:55:55.459Z,101271.81
2022-10-20T22:58:57.782Z,101270.25
2022-10-20T23:01:59.930Z,101284.81
2022-10-20T23:05:02.153Z,101272.50
2022-10-20T23:08:07.836Z,101266.22
2022-10-20T23:11:10.445Z,101267.00
2022-10-20T23:14:12.652Z,101258.50
2022-10-20T23:17:14.836Z,101251.56
2022-10-20T23:20:17.037Z,101241.94
2022-10-20T23:23:19.264Z,101239.56
2022-10-20T23:26:21.521Z,101246.53
2022-10-20T23:29:23.995Z,101244.19
2022-10-20T23:32:26.163Z,101241.50
2022-10-20T23:35:28.429Z,101240.72
2022-10-20T23:38:31.963Z,101250.00
2022-10-20T23:41:34.139Z,101251.56
2022-10-20T23:44:36.346Z,101256.25
2022-10-20T23:47:38.861Z,101254.00
2022-10-20T23:50:43.620Z,101246.72
2022-10-20T23:53:45.817Z,101247.63
2022-10-20T23:59:50.340Z,101250.63
